createdAt,value
2022-11-05T00:02:46.551Z,16.08
2022-11-05T00:08:09.358Z,17.77
2022-11-05T00:13:29.853Z,18.27
2022-11-05T00:18:31.471Z,18.80
2022-11-05T00:23:51.654Z,20.20
2022-11-05T00:28:53.235Z,20.75
2022-11-05T00:33:54.861Z,24.33
2022-11-05T00:38:56.476Z,22.08
2022-11-05T00:44:16.878Z,24.48
2022-11-05T00:49:30.221Z,24.60
2022-11-05T00:54:31.807Z,20.27
2022-11-05T00:59:33.403Z,20.63
2022-11-05T01:04:35.069Z,23.88
2022-11-05T01:09:36.675Z,26.17
2022-11-05T01:14:38.255Z,27.92
2022-11-05T01:19:39.861Z,25.98
2022-11-05T01:24:41.633Z,28.20
2022-11-05T01:29:43.280Z,24.42
2022-11-05T01:34:46.463Z,23.92
2022-11-05T01:39:48.039Z,23.58
2022-11-05T01:44:54.693Z,24.73
2022-11-05T01:49:59.496Z,22.88
2022-11-05T01:55:02.368Z,20.30
2022-11-05T02:00:04.881Z,17.20
2022-11-05T02:05:15.200Z,13.82
2022-11-05T02:10:20.614Z,17.65
2022-11-05T02:15:51.981Z,19.08
2022-11-05T02:21:06.781Z,18.92
2022-11-05T02:26:35.242Z,22.95
2022-11-05T02:32:19.480Z,18.73
2022-11-05T02:37:41.516Z,19.75
2022-11-05T02:42:47.409Z,20.85
2022-11-05T02:48:15.195Z,20.80
2022-11-05T02:53:27.844Z,15.38
2022-11-05T03:03:35.015Z,17.48
2022-11-05T03:08:55.161Z,13.20
2022-11-05T03:14:10.878Z,17.67
2022-11-05T03:19:55.404Z,15.60
2022-11-05T03:25:01.813Z,13.15
2022-11-05T03:35:40.359Z,17.08
2022-11-05T03:40:42.791Z,17.38
2022-11-05T03:45:47.897Z,20.05
2022-11-05T03:50:55.943Z,25.70
2022-11-05T03:56:02.065Z,29.30
2022-11-05T04:01:04.156Z,23.80
2022-11-05T04:06:26.008Z,28.13
2022-11-05T04:11:46.103Z,28.48
2022-11-05T04:17:06.250Z,27.88
2022-11-05T04:22:26.043Z,23.95
2022-11-05T04:27:27.659Z,24.55
2022-11-05T04:32:29.255Z,24.48
2022-11-05T04:37:30.870Z,24.83
2022-11-05T04:42:32.462Z,27.73
2022-11-05T04:47:34.167Z,23.65
2022-11-05T04:52:35.758Z,28.42
2022-11-05T04:57:37.656Z,24.58
2022-11-05T05:02:39.293Z,24.23
2022-11-05T05:07:41.957Z,28.42
2022-11-05T05:12:43.856Z,25.42
2022-11-05T05:17:51.196Z,26.38
2022-11-05T05:22:53.968Z,23.13
2022-11-05T05:27:58.813Z,23.85
2022-11-05T05:33:04.059Z,30.73
2022-11-05T05:38:05.686Z,25.83
2022-11-05T05:43:07.387Z,26.05
2022-11-05T05:48:09.018Z,28.50
2022-11-05T05:53:10.825Z,24.70
2022-11-05T05:58:12.601Z,22.33
2022-11-05T06:03:14.707Z,25.83
2022-11-05T06:08:16.450Z,23.98
2022-11-05T06:13:18.040Z,25.98
2022-11-05T06:18:20.074Z,23.60
2022-11-05T06:23:22.051Z,26.50
2022-11-05T06:28:23.664Z,21.23
2022-11-05T06:33:26.260Z,24.13
2022-11-05T06:38:29.430Z,23.17
2022-11-05T06:43:31.205Z,27.48
2022-11-05T06:48:33.079Z,25.40
2022-11-05T06:53:35.143Z,20.70
2022-11-05T06:58:36.881Z,21.02
2022-11-05T07:03:38.697Z,21.92
2022-11-05T07:08:43.478Z,21.73
2022-11-05T07:13:45.168Z,22.05
2022-11-05T07:18:46.779Z,17.67
2022-11-05T07:23:48.708Z,19.58
2022-11-05T07:28:50.350Z,20.73
2022-11-05T07:33:51.967Z,21.33
2022-11-05T07:38:58.964Z,19.58
2022-11-05T07:44:03.319Z,23.35
2022-11-05T07:49:05.057Z,17.70
2022-11-05T07:54:06.653Z,18.27
2022-11-05T07:59:08.343Z,18.48
2022-11-05T08:04:09.976Z,17.77
2022-11-05T08:09:11.582Z,17.75
2022-11-05T08:14:13.378Z,17.17
2022-11-05T08:19:15.028Z,15.95
2022-11-05T08:24:18.359Z,19.63
2022-11-05T08:29:20.072Z,14.48
2022-11-05T08:34:21.740Z,19.27
2022-11-05T08:39:23.361Z,14.38
2022-11-05T08:44:25.118Z,13.65
2022-11-05T08:49:26.768Z,13.93
2022-11-05T08:54:28.548Z,14.55
2022-11-05T08:59:31.433Z,13.32
2022-11-05T09:04:33.161Z,14.52
2022-11-05T09:09:34.756Z,14.50
2022-11-05T09:14:36.433Z,9.95
2022-11-05T09:19:39.999Z,15.13
2022-11-05T09:24:43.187Z,17.50
2022-11-05T09:29:44.880Z,8.75
2022-11-05T09:34:48.514Z,9.48
2022-11-05T09:39:50.095Z,12.18
2022-11-05T09:44:59.364Z,10.15
2022-11-05T09:50:03.651Z,9.48
2022-11-05T09:55:25.534Z,13.55
2022-11-05T10:00:28.126Z,13.65
2022-11-05T10:05:29.892Z,11.95
2022-11-05T10:10:42.190Z,11.02
2022-11-05T10:15:49.744Z,12.20
2022-11-05T10:20:51.439Z,11.05
2022-11-05T10:26:05.716Z,11.07
2022-11-05T10:31:11.554Z,11.00
2022-11-05T10:36:34.328Z,6.03
2022-11-05T10:42:07.478Z,6.60
2022-11-05T10:47:17.167Z,10.82
2022-11-05T10:52:22.881Z,11.32
2022-11-05T10:57:37.021Z,7.40
2022-11-05T11:02:41.359Z,7.07
2022-11-05T11:07:43.079Z,9.68
2022-11-05T11:12:45.397Z,8.02
2022-11-05T11:17:47.654Z,6.15
2022-11-05T11:23:12.609Z,5.40
2022-11-05T11:41:31.603Z,8.80
2022-11-05T11:46:34.198Z,8.38
2022-11-05T11:51:49.668Z,4.88
2022-11-05T11:56:51.702Z,5.65
2022-11-05T12:02:28.444Z,5.75
2022-11-05T12:07:30.020Z,7.65
2022-11-05T12:12:50.877Z,4.60
2022-11-05T12:18:01.484Z,9.38
2022-11-05T12:23:24.794Z,6.18
2022-11-05T12:28:31.900Z,6.35
2022-11-05T12:33:55.188Z,4.60
2022-11-05T12:39:13.249Z,6.30
2022-11-05T12:44:36.818Z,7.93
2022-11-05T12:49:44.427Z,5.05
2022-11-05T12:54:58.880Z,8.23
2022-11-05T13:00:20.350Z,4.95
2022-11-05T13:05:36.983Z,12.65
2022-11-05T13:10:46.454Z,8.90
2022-11-05T13:15:51.922Z,7.53
2022-11-05T13:20:54.608Z,7.30
2022-11-05T13:26:02.462Z,9.40
2022-11-05T13:31:06.538Z,10.20
2022-11-05T13:36:33.319Z,7.47
2022-11-05T13:41:50.140Z,6.22
2022-11-05T13:47:05.157Z,3.83
2022-11-05T13:52:09.745Z,5.00
2022-11-05T13:57:11.325Z,9.10
2022-11-05T14:02:17.734Z,15.38
2022-11-05T14:07:25.082Z,5.78
2022-11-05T14:12:33.309Z,5.40
2022-11-05T14:17:54.587Z,5.20
2022-11-05T14:23:23.091Z,4.75
2022-11-05T14:28:33.916Z,5.28
2022-11-05T14:33:39.306Z,6.15
2022-11-05T14:38:56.856Z,4.93
2022-11-05T14:44:05.897Z,5.25
2022-11-05T14:49:17.504Z,3.50
2022-11-05T14:54:25.635Z,5.20
2022-11-05T14:59:28.323Z,2.30
2022-11-05T15:04:35.887Z,4.13
2022-11-05T15:09:44.969Z,3.10
2022-11-05T15:15:21.204Z,3.78
2022-11-05T15:20:40.620Z,1.80
2022-11-05T15:25:53.569Z,2.85
2022-11-05T15:30:59.811Z,4.78
2022-11-05T15:36:19.717Z,5.70
2022-11-05T15:41:23.869Z,2.42
2022-11-05T15:46:28.221Z,6.32
2022-11-05T15:51:29.992Z,4.20
2022-11-05T15:56:39.907Z,6.00
2022-11-05T16:01:57.078Z,8.18
2022-11-05T16:07:06.107Z,12.75
2022-11-05T16:12:14.053Z,9.60
2022-11-05T16:17:21.444Z,6.68
2022-11-05T16:22:23.416Z,5.13
2022-11-05T16:27:25.112Z,6.68
2022-11-05T16:32:31.160Z,6.65
2022-11-05T16:37:41.128Z,8.75
2022-11-05T16:42:43.367Z,14.57
2022-11-05T16:47:45.945Z,28.35
2022-11-05T16:52:47.943Z,30.70
2022-11-05T16:57:52.655Z,17.60
2022-11-05T17:02:54.705Z,9.27
2022-11-05T17:07:56.779Z,9.38
2022-11-05T17:12:58.465Z,12.77
2022-11-05T17:18:00.093Z,12.65
2022-11-05T17:23:02.266Z,8.82
2022-11-05T17:28:04.553Z,7.03
2022-11-05T17:33:06.273Z,6.82
2022-11-05T17:38:09.270Z,11.98
2022-11-05T17:43:11.262Z,8.13
2022-11-05T17:48:14.076Z,16.05
2022-11-05T17:53:18.018Z,7.90
2022-11-05T17:58:19.633Z,11.85
2022-11-05T18:03:21.219Z,7.20
2022-11-05T18:08:22.851Z,11.82
2022-11-05T18:13:24.520Z,9.88
2022-11-05T18:18:26.167Z,15.82
2022-11-05T18:23:27.832Z,13.10
2022-11-05T18:28:32.067Z,13.75
2022-11-05T18:33:33.920Z,11.10
2022-11-05T18:38:35.509Z,21.83
2022-11-05T18:43:37.096Z,14.98
2022-11-05T18:48:39.101Z,18.45
2022-11-05T18:53:41.301Z,14.27
2022-11-05T18:58:43.431Z,11.50
2022-11-05T19:03:45.206Z,15.50
2022-11-05T19:08:47.399Z,15.60
2022-11-05T19:13:49.314Z,18.92
2022-11-05T19:18:51.334Z,13.63
2022-11-05T19:23:53.512Z,16.33
2022-11-05T19:28:55.257Z,10.43
2022-11-05T19:33:56.946Z,17.92
2022-11-05T19:39:01.335Z,26.55
2022-11-05T19:44:03.155Z,19.75
2022-11-05T19:49:04.730Z,19.58
2022-11-05T19:54:06.606Z,23.55
2022-11-05T19:59:08.234Z,22.17
2022-11-05T20:04:11.884Z,20.45
2022-11-05T20:09:23.557Z,21.45
2022-11-05T20:14:26.213Z,17.75
2022-11-05T20:19:27.841Z,21.73
2022-11-05T20:24:29.549Z,23.92
2022-11-05T20:29:35.703Z,24.30
2022-11-05T20:34:37.972Z,22.10
2022-11-05T20:39:39.695Z,26.10
2022-11-05T20:44:41.394Z,22.77
2022-11-05T20:49:43.029Z,20.40
2022-11-05T20:54:44.659Z,18.88
2022-11-05T20:59:46.296Z,23.95
2022-11-05T21:04:47.960Z,23.98
2022-11-05T21:09:49.627Z,22.40
2022-11-05T21:14:52.289Z,21.83
2022-11-05T21:19:53.935Z,20.58
2022-11-05T21:24:56.791Z,23.20
2022-11-05T21:29:58.378Z,20.73
2022-11-05T21:35:00.144Z,24.92
2022-11-05T21:40:01.891Z,19.17
2022-11-05T21:45:03.744Z,19.25
2022-11-05T21:50:05.742Z,20.92
2022-11-05T21:55:26.182Z,17.48
2022-11-05T22:00:27.805Z,26.48
2022-11-05T22:05:30.655Z,20.85
2022-11-05T22:10:32.376Z,20.63
2022-11-05T22:15:36.446Z,20.73
2022-11-05T22:20:39.768Z,19.45
2022-11-05T22:25:41.385Z,20.15
2022-11-05T22:30:42.980Z,21.52
2022-11-05T22:35:47.480Z,24.33
2022-11-05T22:40:51.679Z,25.02
2022-11-05T22:46:07.073Z,19.60
2022-11-05T22:51:23.222Z,27.02
2022-11-05T22:56:35.285Z,23.77
2022-11-05T23:02:02.903Z,33.20
2022-11-05T23:07:47.256Z,22.85
2022-11-05T23:12:53.212Z,22.50
2022-11-05T23:18:18.716Z,20.38
2022-11-05T23:23:58.947Z,23.40
2022-11-05T23:29:09.205Z,19.48
2022-11-05T23:34:10.790Z,20.83
2022-11-05T23:39:12.416Z,19.98
2022-11-05T23:44:32.670Z,20.05
2022-11-05T23:49:34.256Z,24.23
2022-11-05T23:54:35.842Z,23.02
2022-11-05T23:59:37.430Z,22.95
